createdAt,value
2023-02-22T00:00:04.743Z,7.89
2023-02-22T00:01:04.722Z,7.88
2023-02-22T00:02:04.747Z,7.88
2023-02-22T00:03:04.780Z,7.92
2023-02-22T00:04:04.702Z,7.89
2023-02-22T00:05:04.656Z,7.88
2023-02-22T00:06:04.661Z,7.85
2023-02-22T00:07:04.640Z,7.89
2023-02-22T00:08:04.653Z,7.86
2023-02-22T00:09:04.611Z,7.85
2023-02-22T00:10:04.599Z,7.85
2023-02-22T00:11:04.609Z,7.82
2023-02-22T00:12:04.587Z,7.82
2023-02-22T00:13:04.581Z,7.84
2023-02-22T00:14:04.565Z,7.86
2023-02-22T00:15:04.557Z,7.79
2023-02-22T00:16:04.567Z,7.76
2023-02-22T00:17:04.525Z,7.79
2023-02-22T00:18:04.543Z,7.76
2023-02-22T00:19:04.491Z,7.77
2023-02-22T00:20:04.530Z,7.73
2023-02-22T00:21:04.467Z,7.70
2023-02-22T00:22:05.417Z,7.74
2023-02-22T00:23:04.482Z,7.74
2023-02-22T00:24:04.450Z,7.62
2023-02-22T00:25:04.413Z,7.63
2023-02-22T00:26:04.394Z,7.57
2023-02-22T00:27:04.386Z,7.55
2023-02-22T00:28:04.431Z,7.60
2023-02-22T00:29:04.362Z,7.52
2023-02-22T00:30:04.344Z,7.57
2023-02-22T00:31:04.345Z,7.52
2023-02-22T00:32:04.398Z,7.58
2023-02-22T00:33:04.330Z,7.50
2023-02-22T00:34:04.299Z,7.48
2023-02-22T00:35:04.281Z,7.52
2023-02-22T00:36:04.263Z,7.51
2023-02-22T00:37:04.253Z,7.52
2023-02-22T00:38:04.292Z,7.54
2023-02-22T00:39:04.220Z,7.57
2023-02-22T00:40:04.264Z,7.54
2023-02-22T00:41:04.201Z,7.52
2023-02-22T00:42:04.194Z,7.54
2023-02-22T00:43:04.198Z,7.54
2023-02-22T00:44:04.179Z,7.55
2023-02-22T00:45:04.183Z,7.52
2023-02-22T00:46:04.188Z,7.54
2023-02-22T00:47:04.118Z,7.58
2023-02-22T00:48:04.121Z,7.62
2023-02-22T00:49:04.109Z,7.54
2023-02-22T00:50:04.137Z,7.55
2023-02-22T00:51:04.086Z,7.60
2023-02-22T00:52:04.048Z,7.57
2023-02-22T00:53:04.071Z,7.63
2023-02-22T00:54:04.038Z,7.60
2023-02-22T00:55:04.014Z,7.57
2023-02-22T00:56:04.012Z,7.60
2023-02-22T00:57:03.988Z,7.55
2023-02-22T00:58:04.051Z,7.62
2023-02-22T00:59:03.958Z,7.62
2023-02-22T01:00:03.947Z,7.60
2023-02-22T01:01:03.946Z,7.51
2023-02-22T01:02:04.043Z,7.51
2023-02-22T01:03:03.945Z,7.55
2023-02-22T01:04:03.897Z,7.51
2023-02-22T01:05:03.893Z,7.48
2023-02-22T01:06:03.881Z,7.51
2023-02-22T01:07:03.856Z,7.50
2023-02-22T01:08:03.935Z,7.50
2023-02-22T01:09:03.845Z,7.48
2023-02-22T01:10:03.853Z,7.48
2023-02-22T01:11:03.805Z,7.52
2023-02-22T01:12:03.800Z,7.52
2023-02-22T01:13:03.784Z,7.47
2023-02-22T01:14:03.777Z,7.54
2023-02-22T01:15:03.795Z,7.50
2023-02-22T01:16:03.761Z,7.45
2023-02-22T01:17:03.747Z,7.45
2023-02-22T01:18:03.724Z,7.42
2023-02-22T01:19:03.704Z,7.42
2023-02-22T01:20:03.758Z,7.48
2023-02-22T01:21:03.692Z,7.42
2023-02-22T01:22:03.685Z,7.39
2023-02-22T01:23:03.709Z,7.36
2023-02-22T01:24:03.662Z,7.42
2023-02-22T01:25:03.629Z,7.47
2023-02-22T01:26:03.694Z,7.39
2023-02-22T01:27:03.671Z,7.44
2023-02-22T01:28:03.623Z,7.42
2023-02-22T01:29:03.585Z,7.50
2023-02-22T01:30:03.573Z,7.48
2023-02-22T01:31:03.642Z,7.51
2023-02-22T01:32:03.564Z,7.52
2023-02-22T01:33:03.572Z,7.51
2023-02-22T01:34:03.511Z,7.51
2023-02-22T01:35:03.502Z,7.52
2023-02-22T01:36:03.502Z,7.52
2023-02-22T01:37:03.473Z,7.48
2023-02-22T01:38:03.521Z,7.48
2023-02-22T01:39:03.439Z,7.52
2023-02-22T01:40:03.445Z,7.52
2023-02-22T01:41:03.441Z,7.52
2023-02-22T01:42:03.409Z,7.50
2023-02-22T01:43:03.429Z,7.51
2023-02-22T01:44:03.404Z,7.51
2023-02-22T01:45:03.370Z,7.50
2023-02-22T01:46:03.417Z,7.51
2023-02-22T01:47:03.346Z,7.54
2023-02-22T01:48:03.367Z,7.54
2023-02-22T01:49:03.318Z,7.52
2023-02-22T01:50:03.299Z,7.50
2023-02-22T01:51:03.320Z,7.48
2023-02-22T01:52:03.277Z,7.52
2023-02-22T01:53:03.299Z,7.48
2023-02-22T01:54:03.273Z,7.47
2023-02-22T01:55:03.257Z,7.50
2023-02-22T01:56:03.377Z,7.50
2023-02-22T01:57:03.215Z,7.51
2023-02-22T01:58:03.235Z,7.51
2023-02-22T01:59:03.195Z,7.55
2023-02-22T02:00:03.203Z,7.58
2023-02-22T02:01:03.194Z,7.52
2023-02-22T02:02:03.149Z,7.58
2023-02-22T02:03:03.157Z,7.52
2023-02-22T02:04:03.215Z,7.58
2023-02-22T02:05:03.135Z,7.55
2023-02-22T02:06:03.990Z,7.62
2023-02-22T02:07:04.044Z,7.58
2023-02-22T02:08:03.065Z,7.62
2023-02-22T02:09:03.083Z,7.62
2023-02-22T02:10:03.057Z,7.62
2023-02-22T02:11:03.031Z,7.70
2023-02-22T02:12:03.014Z,7.62
2023-02-22T02:13:03.017Z,7.60
2023-02-22T02:14:03.309Z,7.66
2023-02-22T02:15:02.978Z,7.66
2023-02-22T02:16:02.958Z,7.67
2023-02-22T02:17:03.010Z,7.62
2023-02-22T02:18:02.974Z,7.60
2023-02-22T02:19:02.967Z,7.62
2023-02-22T02:20:02.910Z,7.62
2023-02-22T02:21:03.845Z,7.63
2023-02-22T02:22:02.906Z,7.67
2023-02-22T02:23:02.911Z,7.66
2023-02-22T02:24:02.936Z,7.69
2023-02-22T02:25:02.870Z,7.66
2023-02-22T02:26:02.861Z,7.66
2023-02-22T02:27:02.846Z,7.71
2023-02-22T02:28:02.827Z,7.69
2023-02-22T02:29:02.840Z,7.70
2023-02-22T02:30:02.784Z,7.70
2023-02-22T02:31:02.778Z,7.73
2023-02-22T02:32:02.931Z,7.69
2023-02-22T02:33:02.756Z,7.70
2023-02-22T02:34:02.772Z,7.71
2023-02-22T02:35:02.725Z,7.70
2023-02-22T02:36:02.716Z,7.74
2023-02-22T02:37:02.716Z,7.71
2023-02-22T02:38:02.684Z,7.71
2023-02-22T02:39:02.728Z,7.71
2023-02-22T02:40:02.678Z,7.77
2023-02-22T02:41:02.693Z,7.77
2023-02-22T02:42:02.627Z,7.76
2023-02-22T02:43:02.661Z,7.73
2023-02-22T02:44:02.636Z,7.73
2023-02-22T02:45:02.593Z,7.74
2023-02-22T02:46:02.583Z,7.73
2023-02-22T02:47:02.606Z,7.71
2023-02-22T02:48:02.555Z,7.74
2023-02-22T02:49:02.578Z,7.74
2023-02-22T02:50:02.540Z,7.76
2023-02-22T02:51:02.523Z,7.76
2023-02-22T02:52:02.506Z,7.76
2023-02-22T02:53:02.522Z,7.82
2023-02-22T02:54:02.506Z,7.79
2023-02-22T02:55:02.466Z,7.79
2023-02-22T02:56:02.461Z,7.79
2023-02-22T02:57:02.446Z,7.79
2023-02-22T02:58:02.438Z,7.79
2023-02-22T02:59:02.446Z,7.81
2023-02-22T03:00:02.405Z,7.82
2023-02-22T03:01:02.397Z,7.82
2023-02-22T03:02:02.409Z,7.79
2023-02-22T03:03:03.306Z,7.82
2023-02-22T03:04:02.418Z,7.84
2023-02-22T03:05:02.351Z,7.82
2023-02-22T03:06:02.322Z,7.79
2023-02-22T03:07:02.678Z,7.82
2023-02-22T03:08:02.318Z,7.85
2023-02-22T03:09:02.322Z,7.84
2023-02-22T03:10:02.262Z,7.86
2023-02-22T03:11:02.279Z,7.85
2023-02-22T03:12:02.338Z,7.88
2023-02-22T03:13:02.269Z,7.88
2023-02-22T03:14:02.253Z,7.86
2023-02-22T03:15:02.248Z,7.85
2023-02-22T03:16:02.226Z,7.81
2023-02-22T03:17:02.207Z,7.85
2023-02-22T03:18:02.180Z,7.84
2023-02-22T03:19:02.198Z,7.86
2023-02-22T03:20:02.166Z,7.82
2023-02-22T03:21:02.139Z,7.85
2023-02-22T03:22:02.130Z,7.92
2023-02-22T03:23:02.102Z,7.91
2023-02-22T03:24:02.165Z,7.89
2023-02-22T03:25:02.130Z,7.94
2023-02-22T03:26:02.064Z,7.92
2023-02-22T03:27:02.092Z,7.89
2023-02-22T03:28:02.052Z,7.94
2023-02-22T03:29:02.040Z,7.88
2023-02-22T03:30:02.031Z,7.92
2023-02-22T03:31:02.144Z,7.91
2023-02-22T03:32:02.080Z,7.91
2023-02-22T03:33:02.009Z,7.91
2023-02-22T03:34:02.003Z,7.92
2023-02-22T03:35:01.955Z,7.91
2023-02-22T03:36:01.935Z,7.92
2023-02-22T03:37:01.933Z,7.94
2023-02-22T03:38:01.917Z,7.91
2023-02-22T03:39:01.959Z,7.92
2023-02-22T03:40:01.900Z,7.92
2023-02-22T03:41:01.923Z,7.94
2023-02-22T03:42:01.854Z,7.92
2023-02-22T03:43:01.856Z,7.96
2023-02-22T03:44:01.955Z,7.94
2023-02-22T03:45:01.840Z,7.96
2023-02-22T03:46:01.858Z,7.92
2023-02-22T03:47:01.805Z,7.94
2023-02-22T03:48:01.794Z,7.96
2023-02-22T03:49:01.801Z,7.89
2023-02-22T03:50:01.756Z,7.88
2023-02-22T03:51:01.765Z,7.95
2023-02-22T03:52:01.737Z,7.96
2023-02-22T03:53:01.745Z,7.95
2023-02-22T03:54:02.042Z,8.00
2023-02-22T03:55:02.640Z,7.99
2023-02-22T03:56:01.688Z,7.94
2023-02-22T03:57:01.673Z,7.95
2023-02-22T03:58:01.668Z,8.02
2023-02-22T03:59:01.676Z,8.02
2023-02-22T04:00:01.656Z,7.99
2023-02-22T04:01:01.620Z,7.92
2023-02-22T04:02:01.606Z,7.95
2023-02-22T04:03:01.668Z,7.95
2023-02-22T04:04:01.614Z,7.99
2023-02-22T04:05:01.645Z,7.96
2023-02-22T04:06:01.572Z,7.91
2023-02-22T04:07:01.554Z,7.95
2023-02-22T04:08:01.533Z,7.91
2023-02-22T04:09:01.561Z,7.89
2023-02-22T04:10:01.502Z,7.92
2023-02-22T04:11:01.499Z,7.94
2023-02-22T04:12:01.479Z,7.92
2023-02-22T04:13:01.461Z,7.95
2023-02-22T04:14:01.495Z,7.92
2023-02-22T04:15:01.445Z,7.92
2023-02-22T04:16:01.483Z,7.86
2023-02-22T04:17:01.418Z,7.86
2023-02-22T04:18:01.410Z,7.88
2023-02-22T04:19:01.420Z,7.91
2023-02-22T04:20:01.410Z,7.88
2023-02-22T04:21:01.375Z,7.84
2023-02-22T04:22:01.372Z,7.86
2023-02-22T04:23:01.354Z,7.88
2023-02-22T04:24:01.377Z,7.88
2023-02-22T04:25:01.326Z,7.84
2023-02-22T04:26:01.322Z,7.86
2023-02-22T04:27:01.291Z,7.91
2023-02-22T04:28:01.271Z,7.91
2023-02-22T04:29:01.297Z,7.86
2023-02-22T04:30:01.247Z,7.86
2023-02-22T04:31:01.252Z,7.88
2023-02-22T04:32:01.322Z,7.84
2023-02-22T04:33:01.219Z,7.91
2023-02-22T04:34:01.209Z,7.84
2023-02-22T04:35:01.184Z,7.85
2023-02-22T04:36:01.161Z,7.85
2023-02-22T04:37:01.196Z,7.86
2023-02-22T04:38:01.138Z,7.84
2023-02-22T04:39:01.162Z,7.91
2023-02-22T04:40:01.124Z,7.85
2023-02-22T04:41:01.129Z,7.88
2023-02-22T04:42:01.084Z,7.82
2023-02-22T04:43:01.084Z,7.89
2023-02-22T04:44:01.096Z,7.85
2023-02-22T04:45:01.054Z,7.85
2023-02-22T04:46:01.043Z,7.86
2023-02-22T04:47:01.043Z,7.84
2023-02-22T04:48:01.008Z,7.86
2023-02-22T04:49:01.032Z,7.88
2023-02-22T04:50:00.989Z,7.84
2023-02-22T04:51:00.996Z,7.85
2023-02-22T04:52:00.967Z,7.86
2023-02-22T04:53:00.949Z,7.88
2023-02-22T04:54:00.937Z,7.91
2023-02-22T04:55:00.962Z,7.85
2023-02-22T04:56:00.908Z,7.88
2023-02-22T04:57:00.909Z,7.82
2023-02-22T04:58:00.879Z,7.84
2023-02-22T04:59:00.874Z,7.82
2023-02-22T05:00:00.902Z,7.84
2023-02-22T05:01:00.909Z,7.86
2023-02-22T05:02:00.859Z,7.84
2023-02-22T05:03:00.818Z,7.76
2023-02-22T05:04:00.814Z,7.85
2023-02-22T05:05:00.917Z,7.77
2023-02-22T05:06:00.809Z,7.79
2023-02-22T05:07:05.035Z,7.81
2023-02-22T05:08:00.756Z,7.76
2023-02-22T05:09:00.761Z,7.74
2023-02-22T05:10:00.809Z,7.79
2023-02-22T05:11:00.716Z,7.74
2023-02-22T05:12:00.764Z,7.79
2023-02-22T05:13:01.280Z,7.73
2023-02-22T05:14:00.686Z,7.71
2023-02-22T05:15:00.712Z,7.73
2023-02-22T05:16:00.658Z,7.76
2023-02-22T05:17:00.642Z,7.77
2023-02-22T05:18:00.630Z,7.71
2023-02-22T05:19:00.616Z,7.76
2023-02-22T05:20:00.626Z,7.73
2023-02-22T05:21:00.589Z,7.77
2023-02-22T05:22:00.584Z,7.71
2023-02-22T05:23:00.585Z,7.70
2023-02-22T05:24:00.648Z,7.71
2023-02-22T05:25:00.566Z,7.71
2023-02-22T05:26:00.530Z,7.67
2023-02-22T05:27:00.517Z,7.70
2023-02-22T05:28:00.520Z,7.69
2023-02-22T05:29:00.484Z,7.70
2023-02-22T05:30:00.505Z,7.69
2023-02-22T05:31:00.515Z,7.67
2023-02-22T05:32:00.556Z,7.69
2023-02-22T05:33:00.439Z,7.71
2023-02-22T05:34:00.414Z,7.67
2023-02-22T05:35:00.492Z,7.63
2023-02-22T05:36:00.393Z,7.67
2023-02-22T05:37:00.414Z,7.67
2023-02-22T05:38:00.366Z,7.62
2023-02-22T05:39:00.383Z,7.66
2023-02-22T05:40:00.534Z,7.60
2023-02-22T05:41:01.280Z,7.67
2023-02-22T05:42:00.315Z,7.70
2023-02-22T05:43:00.317Z,7.66
2023-02-22T05:44:00.292Z,7.66
2023-02-22T05:45:00.312Z,7.62
2023-02-22T05:46:00.275Z,7.67
2023-02-22T05:47:00.276Z,7.70
2023-02-22T05:48:00.246Z,7.60
2023-02-22T05:49:00.225Z,7.58
2023-02-22T05:50:00.256Z,7.60
2023-02-22T05:51:00.514Z,7.55
2023-02-22T05:52:00.219Z,7.60
2023-02-22T05:53:00.177Z,7.58
2023-02-22T05:54:00.347Z,7.60
2023-02-22T05:55:00.234Z,7.63
2023-02-22T05:56:00.088Z,7.57
2023-02-22T05:57:00.193Z,7.58
2023-02-22T05:58:00.084Z,7.55
2023-02-22T05:59:00.051Z,7.60
2023-02-22T06:00:00.100Z,7.60
2023-02-22T06:01:03.049Z,7.58
2023-02-22T06:02:00.107Z,7.58
2023-02-22T06:03:00.021Z,7.57
2023-02-22T06:03:59.991Z,7.60
2023-02-22T06:04:59.996Z,7.57
2023-02-22T06:05:59.975Z,7.60
2023-02-22T06:06:59.940Z,7.60
2023-02-22T06:07:59.931Z,7.57
2023-02-22T06:08:59.940Z,7.60
2023-02-22T06:09:59.933Z,7.54
2023-02-22T06:10:59.909Z,7.57
2023-02-22T06:11:59.899Z,7.52
2023-02-22T06:12:59.861Z,7.55
2023-02-22T06:13:59.865Z,7.58
2023-02-22T06:14:59.866Z,7.52
2023-02-22T06:15:59.861Z,7.54
2023-02-22T06:16:59.819Z,7.52
2023-02-22T06:17:59.852Z,7.51
2023-02-22T06:19:01.015Z,7.55
2023-02-22T06:20:00.053Z,7.50
2023-02-22T06:20:59.876Z,7.52
2023-02-22T06:21:59.758Z,7.50
2023-02-22T06:22:59.762Z,7.52
2023-02-22T06:23:59.751Z,7.51
2023-02-22T06:24:59.728Z,7.48
2023-02-22T06:25:59.689Z,7.50
2023-02-22T06:26:59.684Z,7.48
2023-02-22T06:27:59.677Z,7.52
2023-02-22T06:28:59.667Z,7.50
2023-02-22T06:29:59.698Z,7.51
2023-02-22T06:30:59.635Z,7.44
2023-02-22T06:31:59.723Z,7.41
2023-02-22T06:32:59.610Z,7.42
2023-02-22T06:33:59.600Z,7.47
2023-02-22T06:34:59.620Z,7.44
2023-02-22T06:35:59.568Z,7.45
2023-02-22T06:37:00.103Z,7.42
2023-02-22T06:37:59.546Z,7.45
2023-02-22T06:38:59.532Z,7.45
2023-02-22T06:40:04.922Z,7.42
2023-02-22T06:41:00.486Z,7.36
2023-02-22T06:41:59.533Z,7.42
2023-02-22T06:42:59.506Z,7.37
2023-02-22T06:43:59.477Z,7.36
2023-02-22T06:44:59.498Z,7.36
2023-02-22T06:45:59.492Z,7.39
2023-02-22T06:46:59.464Z,7.39
2023-02-22T06:47:59.417Z,7.41
2023-02-22T06:48:59.392Z,7.41
2023-02-22T06:49:59.442Z,7.41
2023-02-22T06:50:59.364Z,7.36
2023-02-22T06:51:59.355Z,7.39
2023-02-22T06:52:59.343Z,7.36
2023-02-22T06:53:59.369Z,7.44
2023-02-22T06:54:59.353Z,7.37
2023-02-22T06:55:59.303Z,7.42
2023-02-22T06:56:59.299Z,7.44
2023-02-22T06:57:59.296Z,7.45
2023-02-22T06:59:01.063Z,7.37
2023-02-22T06:59:59.296Z,7.42
2023-02-22T07:00:59.279Z,7.44
2023-02-22T07:01:59.239Z,7.45
2023-02-22T07:02:59.341Z,7.39
2023-02-22T07:03:59.194Z,7.44
2023-02-22T07:04:59.214Z,7.44
2023-02-22T07:05:59.187Z,7.44
2023-02-22T07:06:59.950Z,7.42
2023-02-22T07:07:59.160Z,7.44
2023-02-22T07:08:59.137Z,7.42
2023-02-22T07:09:59.300Z,7.44
2023-02-22T07:10:59.108Z,7.47
2023-02-22T07:11:59.117Z,7.47
2023-02-22T07:12:59.092Z,7.48
2023-02-22T07:13:59.101Z,7.54
2023-02-22T07:14:59.124Z,7.44
2023-02-22T07:15:59.067Z,7.48
2023-02-22T07:16:59.100Z,7.51
2023-02-22T07:17:59.046Z,7.48
2023-02-22T07:18:59.106Z,7.52
2023-02-22T07:19:59.349Z,7.50
2023-02-22T07:20:59.069Z,7.44
2023-02-22T07:22:03.087Z,7.45
2023-02-22T07:22:59.016Z,7.52
2023-02-22T07:23:59.058Z,7.50
2023-02-22T07:24:59.079Z,7.45
2023-02-22T07:25:58.929Z,7.50
2023-02-22T07:26:58.933Z,7.48
2023-02-22T07:27:58.917Z,7.50
2023-02-22T07:28:58.886Z,7.52
2023-02-22T07:29:58.967Z,7.52
2023-02-22T07:30:58.932Z,7.50
2023-02-22T07:31:59.021Z,7.57
2023-02-22T07:32:58.871Z,7.57
2023-02-22T07:33:58.829Z,7.52
2023-02-22T07:34:58.837Z,7.54
2023-02-22T07:35:58.826Z,7.55
2023-02-22T07:36:58.806Z,7.54
2023-02-22T07:37:58.774Z,7.52
2023-02-22T07:38:58.765Z,7.51
2023-02-22T07:39:58.779Z,7.63
2023-02-22T07:40:58.728Z,7.63
2023-02-22T07:41:58.719Z,7.66
2023-02-22T07:42:58.705Z,7.66
2023-02-22T07:43:58.697Z,7.60
2023-02-22T07:44:58.717Z,7.60
2023-02-22T07:45:58.708Z,7.58
2023-02-22T07:46:58.656Z,7.66
2023-02-22T07:47:58.657Z,7.63
2023-02-22T07:48:58.625Z,7.60
2023-02-22T07:49:58.615Z,7.66
2023-02-22T07:50:58.636Z,7.66
2023-02-22T07:51:58.601Z,7.63
2023-02-22T07:52:58.585Z,7.60
2023-02-22T07:53:58.566Z,7.62
2023-02-22T07:54:58.548Z,7.67
2023-02-22T07:55:58.586Z,7.66
2023-02-22T07:56:58.539Z,7.63
2023-02-22T07:57:58.534Z,7.71
2023-02-22T07:58:58.497Z,7.73
2023-02-22T07:59:58.495Z,7.74
2023-02-22T08:00:58.511Z,7.79
2023-02-22T08:01:58.465Z,7.79
2023-02-22T08:02:58.466Z,7.84
2023-02-22T08:03:58.518Z,7.84
2023-02-22T08:04:58.429Z,7.85
2023-02-22T08:05:58.756Z,7.79
2023-02-22T08:06:58.419Z,7.82
2023-02-22T08:07:58.394Z,7.77
2023-02-22T08:08:58.366Z,7.79
2023-02-22T08:09:58.383Z,7.76
2023-02-22T08:10:58.396Z,7.81
2023-02-22T08:11:58.349Z,7.79
2023-02-22T08:12:58.313Z,7.82
2023-02-22T08:13:58.305Z,7.79
2023-02-22T08:14:58.322Z,7.84
2023-02-22T08:15:59.021Z,7.85
2023-02-22T08:16:59.744Z,7.86
2023-02-22T08:17:59.001Z,7.88
2023-02-22T08:18:58.510Z,7.92
2023-02-22T08:20:01.733Z,7.88
2023-02-22T08:20:58.274Z,7.92
2023-02-22T08:21:58.213Z,7.86
2023-02-22T08:22:58.218Z,7.82
2023-02-22T08:23:58.209Z,7.86
2023-02-22T08:25:01.125Z,7.91
2023-02-22T08:25:58.214Z,7.91
2023-02-22T08:26:59.155Z,7.92
2023-02-22T08:27:58.129Z,7.92
2023-02-22T08:28:58.223Z,7.91
2023-02-22T08:29:58.114Z,7.99
2023-02-22T08:30:58.132Z,7.95
2023-02-22T08:31:58.231Z,7.89
2023-02-22T08:33:02.284Z,7.91
2023-02-22T08:33:58.051Z,7.94
2023-02-22T08:34:58.053Z,7.94
2023-02-22T08:35:58.079Z,7.96
2023-02-22T08:36:58.018Z,7.99
2023-02-22T08:37:58.004Z,8.00
2023-02-22T08:38:58.086Z,8.02
2023-02-22T08:39:57.973Z,8.06
2023-02-22T08:40:57.986Z,8.04
2023-02-22T08:41:58.080Z,8.12
2023-02-22T08:42:57.924Z,8.10
2023-02-22T08:43:57.920Z,8.10
2023-02-22T08:44:57.902Z,8.10
2023-02-22T08:45:58.683Z,8.09
2023-02-22T08:46:57.879Z,8.12
2023-02-22T08:47:58.060Z,8.12
2023-02-22T08:48:57.959Z,8.12
2023-02-22T08:49:57.854Z,8.09
2023-02-22T08:50:58.054Z,8.07
2023-02-22T08:51:57.828Z,8.07
2023-02-22T08:52:57.797Z,8.13
2023-02-22T08:53:57.800Z,8.17
2023-02-22T08:54:57.937Z,8.20
2023-02-22T08:55:57.811Z,8.14
2023-02-22T08:56:57.738Z,8.24
2023-02-22T08:57:58.413Z,8.14
2023-02-22T08:58:57.744Z,8.21
2023-02-22T09:00:00.369Z,8.24
2023-02-22T09:00:57.734Z,8.21
2023-02-22T09:01:57.964Z,8.10
2023-02-22T09:02:57.663Z,8.18
2023-02-22T09:03:58.802Z,8.25
2023-02-22T09:04:57.645Z,8.17
2023-02-22T09:05:57.932Z,8.20
2023-02-22T09:06:57.620Z,8.21
2023-02-22T09:08:00.653Z,8.12
2023-02-22T09:08:57.595Z,8.20
2023-02-22T09:09:58.224Z,8.22
2023-02-22T09:10:57.603Z,8.14
2023-02-22T09:11:58.249Z,8.18
2023-02-22T09:12:57.539Z,8.14
2023-02-22T09:13:58.917Z,8.10
2023-02-22T09:14:57.504Z,8.14
2023-02-22T09:16:01.962Z,8.21
2023-02-22T09:16:57.527Z,8.22
2023-02-22T09:17:57.718Z,8.22
2023-02-22T09:18:58.193Z,8.29
2023-02-22T09:19:57.448Z,8.29
2023-02-22T09:20:57.464Z,8.40
2023-02-22T09:21:57.422Z,8.40
2023-02-22T09:22:57.445Z,8.43
2023-02-22T09:23:57.401Z,8.36
2023-02-22T09:25:00.199Z,8.43
2023-02-22T09:25:57.404Z,8.39
2023-02-22T09:26:57.397Z,8.40
2023-02-22T09:27:57.351Z,8.47
2023-02-22T09:28:57.424Z,8.55
2023-02-22T09:29:57.320Z,8.63
2023-02-22T09:30:57.358Z,8.57
2023-02-22T09:31:57.495Z,8.60
2023-02-22T09:32:57.362Z,8.67
2023-02-22T09:33:57.285Z,8.64
2023-02-22T09:34:57.383Z,8.76
2023-02-22T09:35:57.272Z,8.73
2023-02-22T09:36:57.221Z,8.75
2023-02-22T09:37:57.212Z,8.75
2023-02-22T09:38:57.206Z,8.68
2023-02-22T09:39:57.213Z,8.67
2023-02-22T09:40:57.225Z,8.64
2023-02-22T09:41:57.177Z,8.57
2023-02-22T09:42:57.148Z,8.58
2023-02-22T09:43:57.163Z,8.52
2023-02-22T09:44:57.118Z,8.50
2023-02-22T09:45:57.197Z,8.54
2023-02-22T09:46:57.092Z,8.57
2023-02-22T09:47:58.581Z,8.68
2023-02-22T09:48:57.070Z,8.75
2023-02-22T09:49:57.220Z,8.57
2023-02-22T09:50:57.080Z,8.60
2023-02-22T09:51:57.116Z,8.63
2023-02-22T09:52:57.010Z,8.64
2023-02-22T09:53:57.210Z,8.76
2023-02-22T09:54:57.007Z,8.82
2023-02-22T09:55:57.050Z,8.86
2023-02-22T09:56:56.970Z,8.91
2023-02-22T09:57:56.974Z,9.00
2023-02-22T09:58:56.952Z,9.08
2023-02-22T09:59:56.940Z,9.13
2023-02-22T10:00:56.962Z,9.03
2023-02-22T10:01:56.900Z,9.01
2023-02-22T10:02:56.954Z,9.06
2023-02-22T10:03:56.925Z,9.03
2023-02-22T10:04:56.937Z,9.13
2023-02-22T10:05:56.924Z,9.06
2023-02-22T10:06:56.842Z,9.13
2023-02-22T10:07:56.834Z,9.13
2023-02-22T10:08:56.811Z,9.26
2023-02-22T10:09:56.801Z,9.34
2023-02-22T10:10:56.813Z,9.37
2023-02-22T10:11:56.961Z,9.48
2023-02-22T10:12:56.810Z,9.56
2023-02-22T10:13:56.762Z,9.48
2023-02-22T10:14:56.747Z,9.50
2023-02-22T10:15:59.814Z,9.53
2023-02-22T10:16:56.911Z,9.60
2023-02-22T10:17:56.690Z,9.52
2023-02-22T10:18:56.700Z,9.49
2023-02-22T10:19:56.799Z,9.42
2023-02-22T10:20:56.823Z,9.32
2023-02-22T10:21:56.703Z,9.31
2023-02-22T10:22:56.628Z,9.27
2023-02-22T10:23:56.740Z,9.22
2023-02-22T10:24:56.664Z,9.24
2023-02-22T10:25:56.632Z,9.23
2023-02-22T10:26:58.898Z,9.31
2023-02-22T10:27:56.591Z,9.34
2023-02-22T10:28:56.656Z,9.40
2023-02-22T10:29:57.282Z,9.32
2023-02-22T10:30:56.735Z,9.35
2023-02-22T10:31:56.661Z,9.38
2023-02-22T10:32:56.682Z,9.35
2023-02-22T10:33:56.500Z,9.35
2023-02-22T10:34:56.842Z,9.38
2023-02-22T10:35:56.695Z,9.49
2023-02-22T10:36:56.584Z,9.42
2023-02-22T10:37:56.426Z,9.37
2023-02-22T10:38:56.426Z,9.41
2023-02-22T10:39:56.455Z,9.37
2023-02-22T10:40:56.427Z,9.34
2023-02-22T10:41:57.400Z,9.34
2023-02-22T10:42:57.147Z,9.24
2023-02-22T10:43:56.357Z,9.27
2023-02-22T10:44:56.406Z,9.23
2023-02-22T10:45:56.488Z,9.26
2023-02-22T10:46:56.356Z,9.24
2023-02-22T10:47:56.402Z,9.32
2023-02-22T10:48:56.320Z,9.37
2023-02-22T10:49:56.301Z,9.31
2023-02-22T10:50:56.277Z,9.32
2023-02-22T10:51:56.256Z,9.40
2023-02-22T10:52:56.416Z,9.49
2023-02-22T10:53:56.313Z,9.45
2023-02-22T10:55:01.055Z,9.50
2023-02-22T10:55:57.239Z,9.50
2023-02-22T10:56:56.225Z,9.56
2023-02-22T10:57:56.176Z,9.68
2023-02-22T10:58:56.210Z,9.74
2023-02-22T10:59:56.157Z,9.77
2023-02-22T11:00:56.136Z,9.71
2023-02-22T11:01:56.157Z,9.74
2023-02-22T11:02:56.161Z,9.74
2023-02-22T11:03:56.104Z,9.74
2023-02-22T11:04:56.143Z,9.73
2023-02-22T11:05:56.083Z,9.95
2023-02-22T11:06:56.117Z,10.06
2023-02-22T11:07:56.045Z,10.17
2023-02-22T11:08:56.036Z,10.14
2023-02-22T11:09:56.966Z,10.07
2023-02-22T11:10:56.022Z,10.14
2023-02-22T11:11:56.040Z,10.17
2023-02-22T11:12:56.153Z,10.14
2023-02-22T11:13:55.978Z,10.09
2023-02-22T11:14:55.965Z,9.99
2023-02-22T11:15:55.939Z,10.02
2023-02-22T11:16:56.006Z,9.98
2023-02-22T11:17:55.921Z,9.91
2023-02-22T11:18:55.920Z,9.92
2023-02-22T11:19:55.904Z,9.93
2023-02-22T11:20:55.886Z,9.96
2023-02-22T11:21:55.890Z,9.93
2023-02-22T11:22:55.994Z,9.93
2023-02-22T11:23:55.901Z,9.95
2023-02-22T11:25:01.143Z,9.95
2023-02-22T11:25:55.899Z,10.07
2023-02-22T11:26:55.987Z,10.16
2023-02-22T11:27:55.793Z,10.26
2023-02-22T11:28:55.776Z,10.28
2023-02-22T11:29:55.763Z,10.26
2023-02-22T11:30:56.004Z,10.36
2023-02-22T11:31:56.309Z,10.39
2023-02-22T11:32:55.786Z,10.42
2023-02-22T11:34:30.298Z,10.49
2023-02-22T11:35:30.320Z,10.38
2023-02-22T11:36:30.184Z,10.29
2023-02-22T11:37:30.207Z,10.32
2023-02-22T11:38:30.122Z,10.29
2023-02-22T11:39:30.199Z,10.34
2023-02-22T11:40:30.092Z,10.31
2023-02-22T11:41:30.131Z,10.38
2023-02-22T11:42:30.080Z,10.42
2023-02-22T11:43:30.054Z,10.46
2023-02-22T11:44:30.037Z,10.51
2023-02-22T11:45:30.020Z,10.46
2023-02-22T11:46:30.366Z,10.47
2023-02-22T11:47:30.171Z,10.54
2023-02-22T11:48:29.983Z,10.65
2023-02-22T11:49:29.968Z,10.75
2023-02-22T11:50:29.970Z,10.91
2023-02-22T11:51:29.986Z,10.93
2023-02-22T11:52:30.101Z,10.90
2023-02-22T11:53:30.076Z,10.93
2023-02-22T11:54:30.657Z,11.01
2023-02-22T11:55:42.383Z,11.02
2023-02-22T11:56:37.747Z,11.03
2023-02-22T11:57:30.941Z,11.03
2023-02-22T11:58:31.205Z,11.05
2023-02-22T11:59:29.837Z,10.99
2023-02-22T12:00:29.853Z,11.02
2023-02-22T12:01:29.816Z,10.91
2023-02-22T12:02:30.780Z,10.94
2023-02-22T12:03:29.824Z,10.95
2023-02-22T12:04:30.035Z,11.01
2023-02-22T12:05:29.867Z,11.13
2023-02-22T12:06:29.748Z,11.24
2023-02-22T12:07:29.788Z,11.35
2023-02-22T12:08:29.759Z,11.46
2023-02-22T12:09:30.673Z,11.60
2023-02-22T12:10:29.705Z,11.72
2023-02-22T12:11:29.681Z,11.81
2023-02-22T12:12:29.714Z,11.90
2023-02-22T12:13:29.657Z,11.94
2023-02-22T12:14:29.646Z,11.93
2023-02-22T12:15:29.651Z,11.93
2023-02-22T12:16:29.666Z,11.82
2023-02-22T12:17:29.628Z,11.79
2023-02-22T12:18:29.606Z,11.75
2023-02-22T12:19:29.606Z,11.69
2023-02-22T12:20:29.570Z,11.69
2023-02-22T12:21:29.557Z,11.64
2023-02-22T12:22:29.587Z,11.67
2023-02-22T12:23:29.548Z,11.69
2023-02-22T12:24:29.536Z,11.70
2023-02-22T12:25:29.547Z,11.77
2023-02-22T12:26:29.488Z,11.84
2023-02-22T12:27:29.513Z,11.96
2023-02-22T12:28:29.511Z,12.04
2023-02-22T12:29:29.453Z,12.11
2023-02-22T12:30:29.488Z,12.18
2023-02-22T12:31:29.500Z,12.23
2023-02-22T12:32:29.552Z,12.29
2023-02-22T12:33:29.408Z,12.26
2023-02-22T12:34:29.466Z,12.22
2023-02-22T12:35:29.375Z,12.25
2023-02-22T12:36:29.363Z,12.23
2023-02-22T12:37:29.363Z,12.34
2023-02-22T12:38:29.334Z,12.41
2023-02-22T12:39:29.346Z,12.52
2023-02-22T12:40:29.323Z,12.49
2023-02-22T12:41:29.493Z,12.61
2023-02-22T12:42:29.449Z,12.63
2023-02-22T12:43:29.287Z,12.77
2023-02-22T12:44:29.328Z,12.85
2023-02-22T12:45:29.235Z,12.81
2023-02-22T12:46:29.350Z,12.85
2023-02-22T12:47:29.237Z,12.94
2023-02-22T12:48:29.306Z,12.91
2023-02-22T12:49:29.185Z,12.96
2023-02-22T12:50:29.186Z,12.89
2023-02-22T12:51:29.181Z,12.98
2023-02-22T12:52:29.188Z,13.06
2023-02-22T12:53:29.137Z,12.98
2023-02-22T12:54:29.141Z,12.96
2023-02-22T12:55:29.114Z,12.89
2023-02-22T12:56:29.105Z,12.96
2023-02-22T12:57:29.106Z,12.99
2023-02-22T12:58:29.076Z,13.03
2023-02-22T12:59:29.048Z,13.14
2023-02-22T13:00:29.045Z,13.10
2023-02-22T13:01:29.110Z,13.06
2023-02-22T13:02:29.046Z,13.01
2023-02-22T13:03:29.010Z,13.04
2023-02-22T13:04:28.997Z,13.07
2023-02-22T13:05:29.023Z,13.01
2023-02-22T13:06:28.970Z,13.06
2023-02-22T13:07:29.010Z,13.12
2023-02-22T13:08:29.004Z,13.03
2023-02-22T13:09:28.934Z,13.01
2023-02-22T13:10:28.917Z,12.96
2023-02-22T13:11:28.918Z,12.92
2023-02-22T13:12:28.922Z,12.98
2023-02-22T13:13:28.964Z,12.95
2023-02-22T13:14:28.932Z,13.04